Time;durP1;ratioP1;P1;durP2;ratioP2;P2;SDS_P1;SDS_P2;PMS_P1;PMS_P2;Temp;Humidity;BMP_temperature;BMP_pressure;BME280_temperature;BME280_humidity;BME280_pressure;Samples;Min_cycle;Max_cycle;Signal;HPM_P1;HPM_P2
2023/05/18 00:01:59;;;;;;;9.85;3.95;;;;;;;;;;4947043;28;20055;-88
2023/05/18 00:04:27;;;;;;;12.38;4.00;;;;;;;;;;4944218;28;20055;-88
2023/05/18 00:06:57;;;;;;;16.90;4.13;;;;;;;;;;4946019;28;20047;-87
2023/05/18 00:09:26;;;;;;;17.60;5.00;;;;;;;;;;4945586;28;20047;-86
2023/05/18 00:11:54;;;;;;;13.45;4.05;;;;;;;;;;4944481;29;20047;-88
2023/05/18 00:14:21;;;;;;;16.17;4.53;;;;;;;;;;4947117;29;20051;-84
2023/05/18 00:16:47;;;;;;;15.90;4.53;;;;;;;;;;4965579;28;20039;-85
2023/05/18 00:19:14;;;;;;;14.30;4.15;;;;;;;;;;4953295;28;20103;-84
2023/05/18 00:21:42;;;;;;;11.20;4.25;;;;;;;;;;4949864;28;20063;-87
2023/05/18 00:24:11;;;;;;;15.35;4.13;;;;;;;;;;4956584;28;20075;-87
2023/05/18 00:26:38;;;;;;;16.60;4.70;;;;;;;;;;4957828;28;20055;-87
2023/05/18 00:29:05;;;;;;;15.60;4.22;;;;;;;;;;4942229;28;20115;-88
2023/05/18 00:31:35;;;;;;;19.40;4.18;;;;;;;;;;4942691;28;20051;-85
2023/05/18 00:34:06;;;;;;;19.92;4.47;;;;;;;;;;4942924;28;20496;-85
2023/05/18 00:36:33;;;;;;;15.55;3.63;;;;;;;;;;4944099;28;20119;-87
2023/05/18 00:39:00;;;;;;;15.57;5.07;;;;;;;;;;4944172;28;20455;-84
2023/05/18 00:41:26;;;;;;;18.90;4.07;;;;;;;;;;4947403;28;20110;-85
2023/05/18 00:43:58;;;;;;;14.90;3.90;;;;;;;;;;4947726;29;20070;-85
2023/05/18 00:46:25;;;;;;;12.82;3.65;;;;;;;;;;4949479;29;20084;-85
2023/05/18 00:48:55;;;;;;;12.65;3.47;;;;;;;;;;4949523;28;20107;-86
2023/05/18 00:51:23;;;;;;;10.75;3.42;;;;;;;;;;4946808;28;20053;-85
2023/05/18 00:53:51;;;;;;;10.57;3.38;;;;;;;;;;4944922;28;20048;-86
2023/05/18 00:56:18;;;;;;;12.15;3.20;;;;;;;;;;4944709;28;20313;-86
2023/05/18 00:58:46;;;;;;;17.50;5.30;;;;;;;;;;4944661;28;20322;-87
2023/05/18 01:01:16;;;;;;;12.45;3.83;;;;;;;;;;4945361;28;20151;-85
2023/05/18 01:03:43;;;;;;;13.50;3.80;;;;;;;;;;4960756;28;20058;-85
2023/05/18 01:06:11;;;;;;;10.32;3.85;;;;;;;;;;4944442;28;20056;-83
2023/05/18 01:08:38;;;;;;;16.55;4.18;;;;;;;;;;4944378;28;20048;-87
2023/05/18 01:11:28;;;;;;;13.05;3.85;;;;;;;;;;4959198;28;20040;-87
2023/05/18 01:14:10;;;;;;;15.23;4.38;;;;;;;;;;4944212;28;20070;-86
2023/05/18 01:16:57;;;;;;;20.58;4.80;;;;;;;;;;4943480;28;20047;-87
2023/05/18 01:19:24;;;;;;;14.98;4.00;;;;;;;;;;4941760;28;20031;-84
2023/05/18 01:21:57;;;;;;;18.60;4.60;;;;;;;;;;4936215;28;20356;-84
2023/05/18 01:24:32;;;;;;;15.13;3.58;;;;;;;;;;4940294;28;20078;-86
2023/05/18 01:26:59;;;;;;;15.48;3.95;;;;;;;;;;4942103;28;20047;-87
2023/05/18 01:29:27;;;;;;;10.20;3.97;;;;;;;;;;4960506;28;20027;-84
2023/05/18 01:31:54;;;;;;;16.98;4.57;;;;;;;;;;4942261;28;20051;-86
2023/05/18 01:34:21;;;;;;;18.92;4.38;;;;;;;;;;4938053;28;20047;-84
2023/05/18 01:36:47;;;;;;;17.35;4.47;;;;;;;;;;4939547;28;20098;-87
2023/05/18 01:39:14;;;;;;;16.73;4.20;;;;;;;;;;4943307;28;20066;-86
2023/05/18 01:41:48;;;;;;;17.95;4.35;;;;;;;;;;4942546;28;20071;-87
2023/05/18 01:44:19;;;;;;;13.80;4.75;;;;;;;;;;4943312;28;20075;-86
2023/05/18 01:46:58;;;;;;;16.92;4.60;;;;;;;;;;4942476;28;20040;-87
2023/05/18 01:49:41;;;;;;;10.30;3.72;;;;;;;;;;4942746;28;20071;-87
2023/05/18 01:52:10;;;;;;;14.80;3.85;;;;;;;;;;4943469;28;20547;-87
2023/05/18 01:54:40;;;;;;;15.63;4.43;;;;;;;;;;4958578;28;20043;-87
2023/05/18 01:57:07;;;;;;;10.13;4.18;;;;;;;;;;4958426;28;20052;-85
2023/05/18 01:59:34;;;;;;;13.93;4.47;;;;;;;;;;4941868;29;20051;-88
2023/05/18 02:02:02;;;;;;;11.70;3.72;;;;;;;;;;4939210;29;20048;-86
2023/05/18 02:04:29;;;;;;;21.42;4.32;;;;;;;;;;4924289;28;20107;-88
2023/05/18 02:06:55;;;;;;;13.85;3.92;;;;;;;;;;4939474;28;20066;-88
2023/05/18 02:09:22;;;;;;;18.58;4.07;;;;;;;;;;4939950;28;20476;-88
2023/05/18 02:11:49;;;;;;;15.60;4.70;;;;;;;;;;4938502;28;20047;-87
2023/05/18 02:14:16;;;;;;;15.20;4.13;;;;;;;;;;4955721;28;20107;-87
2023/05/18 02:16:46;;;;;;;17.67;4.38;;;;;;;;;;4939313;28;20071;-88
2023/05/18 02:19:13;;;;;;;20.83;4.15;;;;;;;;;;4947480;28;20042;-88
2023/05/18 02:21:42;;;;;;;18.25;4.43;;;;;;;;;;4935946;28;20063;-86
2023/05/18 02:24:10;;;;;;;13.82;4.15;;;;;;;;;;4967942;28;20044;-88
2023/05/18 02:26:37;;;;;;;15.48;4.35;;;;;;;;;;4958287;28;20055;-88
2023/05/18 02:29:10;;;;;;;18.73;4.20;;;;;;;;;;4924964;29;20071;-89
2023/05/18 02:31:37;;;;;;;12.05;4.18;;;;;;;;;;4925346;29;20047;-85
2023/05/18 02:34:04;;;;;;;15.23;4.07;;;;;;;;;;4945120;28;20047;-87
2023/05/18 02:36:35;;;;;;;15.38;4.85;;;;;;;;;;4946444;28;20060;-86
2023/05/18 02:39:03;;;;;;;19.00;4.13;;;;;;;;;;4943423;28;20047;-88
2023/05/18 02:41:30;;;;;;;11.75;3.80;;;;;;;;;;4942298;28;20076;-87
2023/05/18 02:43:57;;;;;;;13.00;4.05;;;;;;;;;;4946334;28;20058;-88
2023/05/18 02:46:25;;;;;;;14.77;4.88;;;;;;;;;;4946935;28;20087;-87
2023/05/18 02:48:52;;;;;;;13.20;4.10;;;;;;;;;;4945851;28;20043;-88
2023/05/18 02:51:18;;;;;;;15.40;4.38;;;;;;;;;;4944814;28;20074;-88
2023/05/18 02:53:46;;;;;;;10.43;4.10;;;;;;;;;;4941655;28;20039;-88
2023/05/18 02:56:14;;;;;;;13.85;4.15;;;;;;;;;;4941140;28;20050;-89
2023/05/18 02:58:47;;;;;;;10.07;3.92;;;;;;;;;;4941129;28;20065;-89
2023/05/18 03:01:26;;;;;;;15.90;4.45;;;;;;;;;;4941015;28;20048;-89
2023/05/18 03:03:53;;;;;;;18.75;4.72;;;;;;;;;;4957290;28;20516;-89
2023/05/18 03:06:25;;;;;;;17.38;4.68;;;;;;;;;;4925492;28;20043;-88
2023/05/18 03:08:53;;;;;;;15.10;4.63;;;;;;;;;;4957685;28;20043;-90
2023/05/18 03:11:23;;;;;;;10.90;3.92;;;;;;;;;;4925442;28;20056;-89
2023/05/18 03:13:50;;;;;;;13.43;4.20;;;;;;;;;;4926335;28;20445;-88
2023/05/18 03:16:17;;;;;;;12.20;4.50;;;;;;;;;;4941029;28;20058;-88
2023/05/18 03:18:45;;;;;;;13.38;4.15;;;;;;;;;;4925547;28;20054;-88
2023/05/18 03:21:13;;;;;;;13.32;4.10;;;;;;;;;;4937796;29;20056;-87
2023/05/18 03:23:39;;;;;;;10.57;4.20;;;;;;;;;;4922292;29;20059;-89
2023/05/18 03:26:10;;;;;;;9.55;3.70;;;;;;;;;;4924865;28;20048;-90
2023/05/18 03:28:37;;;;;;;16.40;4.82;;;;;;;;;;4939714;28;20051;-88
2023/05/18 03:31:04;;;;;;;14.77;4.38;;;;;;;;;;4923420;28;20209;-88
2023/05/18 03:33:31;;;;;;;14.27;3.90;;;;;;;;;;4961599;28;20134;-89
2023/05/18 03:36:02;;;;;;;11.52;3.80;;;;;;;;;;4947733;28;20107;-87
2023/05/18 03:38:29;;;;;;;11.60;4.90;;;;;;;;;;4950366;28;20119;-88
2023/05/18 03:41:02;;;;;;;12.43;4.22;;;;;;;;;;4936218;28;20066;-87
2023/05/18 03:43:31;;;;;;;8.15;3.97;;;;;;;;;;4953536;28;20032;-87
2023/05/18 03:45:59;;;;;;;10.30;4.20;;;;;;;;;;4953212;28;20055;-87
2023/05/18 03:48:26;;;;;;;10.65;4.10;;;;;;;;;;4936166;28;20054;-87
2023/05/18 03:50:53;;;;;;;11.45;4.13;;;;;;;;;;4933973;28;20047;-87
2023/05/18 03:53:20;;;;;;;11.57;4.45;;;;;;;;;;4950632;28;20390;-88
2023/05/18 03:55:49;;;;;;;14.50;4.32;;;;;;;;;;4936702;28;20039;-85
2023/05/18 03:58:16;;;;;;;11.75;4.13;;;;;;;;;;4955836;28;20036;-87
2023/05/18 04:00:43;;;;;;;15.27;4.63;;;;;;;;;;4938991;28;20047;-87
2023/05/18 04:03:14;;;;;;;10.80;4.38;;;;;;;;;;4939053;28;20043;-88
2023/05/18 04:05:44;;;;;;;13.93;4.70;;;;;;;;;;4954321;28;20044;-90
2023/05/18 04:14:36;;;;;;;9.18;4.30;;;;;;;;;;4988718;28;20039;-86
2023/05/18 04:17:06;;;;;;;12.65;3.88;;;;;;;;;;4956703;28;20070;-84
2023/05/18 04:19:34;;;;;;;11.65;4.30;;;;;;;;;;4958062;28;20099;-86
2023/05/18 04:22:05;;;;;;;12.40;4.30;;;;;;;;;;4961722;28;20047;-85
2023/05/18 04:24:31;;;;;;;9.88;4.28;;;;;;;;;;4963385;28;20051;-85
2023/05/18 04:27:02;;;;;;;13.55;4.47;;;;;;;;;;4954929;28;20047;-84
2023/05/18 04:29:29;;;;;;;12.73;4.68;;;;;;;;;;4955227;28;20063;-85
2023/05/18 04:31:59;;;;;;;12.25;4.72;;;;;;;;;;4954317;28;20188;-89
2023/05/18 04:34:27;;;;;;;13.75;4.63;;;;;;;;;;4960395;28;20057;-84
2023/05/18 04:36:57;;;;;;;14.50;5.07;;;;;;;;;;4976887;28;20158;-84
2023/05/18 04:39:26;;;;;;;17.15;5.28;;;;;;;;;;4965604;28;20527;-85
2023/05/18 04:41:57;;;;;;;9.77;4.80;;;;;;;;;;4991374;28;20302;-82
2023/05/18 04:44:33;;;;;;;14.27;6.05;;;;;;;;;;4948914;28;20138;-82
2023/05/18 04:47:00;;;;;;;12.45;4.90;;;;;;;;;;4955175;28;20106;-85
2023/05/18 04:49:28;;;;;;;12.30;5.38;;;;;;;;;;4984649;28;20552;-82
2023/05/18 04:51:55;;;;;;;15.88;4.97;;;;;;;;;;4990769;28;20599;-88
2023/05/18 04:54:22;;;;;;;16.63;5.05;;;;;;;;;;4986260;28;20051;-86
2023/05/18 04:56:50;;;;;;;14.23;5.35;;;;;;;;;;4990275;28;20061;-86
2023/05/18 04:59:17;;;;;;;11.65;4.97;;;;;;;;;;4957983;28;20394;-85
2023/05/18 05:01:44;;;;;;;12.95;4.47;;;;;;;;;;4972771;28;20050;-85
2023/05/18 05:04:12;;;;;;;10.40;4.38;;;;;;;;;;4957368;28;20054;-84
2023/05/18 05:06:39;;;;;;;13.95;4.93;;;;;;;;;;4975715;28;20038;-86
2023/05/18 05:09:06;;;;;;;13.38;4.78;;;;;;;;;;4978628;28;20070;-84
2023/05/18 05:11:33;;;;;;;12.45;4.65;;;;;;;;;;4954435;28;20051;-83
2023/05/18 05:14:01;;;;;;;10.82;4.65;;;;;;;;;;4966639;28;20499;-82
2023/05/18 05:16:28;;;;;;;10.80;4.45;;;;;;;;;;4956703;28;20375;-86
2023/05/18 05:18:55;;;;;;;13.55;5.10;;;;;;;;;;4956942;28;20050;-83
2023/05/18 05:21:24;;;;;;;18.35;4.65;;;;;;;;;;4951118;28;20058;-83
2023/05/18 05:23:51;;;;;;;13.70;4.53;;;;;;;;;;4937036;28;20058;-83
2023/05/18 05:26:18;;;;;;;16.77;4.50;;;;;;;;;;4964084;28;20047;-86
2023/05/18 05:28:45;;;;;;;18.55;4.45;;;;;;;;;;4963938;28;20068;-84
2023/05/18 05:31:12;;;;;;;20.02;4.07;;;;;;;;;;4966710;28;20054;-82
2023/05/18 05:33:39;;;;;;;25.90;4.07;;;;;;;;;;4960496;28;20054;-85
2023/05/18 05:36:07;;;;;;;11.55;3.78;;;;;;;;;;4951392;28;20680;-84
2023/05/18 05:38:34;;;;;;;13.35;3.88;;;;;;;;;;4958717;28;20047;-83
2023/05/18 05:41:03;;;;;;;16.38;3.78;;;;;;;;;;4980823;28;20058;-81
2023/05/18 05:43:33;;;;;;;21.73;3.95;;;;;;;;;;4977061;28;20067;-84
2023/05/18 05:46:01;;;;;;;15.93;3.28;;;;;;;;;;4965569;28;20047;-82
2023/05/18 05:48:28;;;;;;;12.60;2.95;;;;;;;;;;4952160;28;20098;-84
2023/05/18 05:50:55;;;;;;;16.52;3.47;;;;;;;;;;4969565;28;20047;-86
2023/05/18 05:53:28;;;;;;;11.45;3.08;;;;;;;;;;4954748;28;20063;-83
2023/05/18 05:55:57;;;;;;;15.68;3.40;;;;;;;;;;4961697;28;20043;-84
2023/05/18 05:58:24;;;;;;;13.70;3.35;;;;;;;;;;4968583;28;20467;-83
2023/05/18 06:00:57;;;;;;;15.60;2.90;;;;;;;;;;4927391;28;20043;-84
2023/05/18 06:03:24;;;;;;;11.32;3.55;;;;;;;;;;4940998;28;20106;-85
2023/05/18 06:05:51;;;;;;;12.57;3.22;;;;;;;;;;4947511;28;20682;-84
2023/05/18 06:08:20;;;;;;;9.45;2.90;;;;;;;;;;4959994;28;20121;-86
2023/05/18 06:10:47;;;;;;;12.90;2.90;;;;;;;;;;4948366;28;20044;-82
2023/05/18 06:13:15;;;;;;;12.43;2.70;;;;;;;;;;4948005;28;20047;-84
2023/05/18 06:16:08;;;;;;;13.05;3.00;;;;;;;;;;4956280;28;20051;-84
2023/05/18 06:18:38;;;;;;;16.90;3.15;;;;;;;;;;4954155;28;20043;-85
2023/05/18 06:21:08;;;;;;;13.05;3.25;;;;;;;;;;4953754;28;20053;-83
2023/05/18 06:23:38;;;;;;;18.00;2.95;;;;;;;;;;4952202;28;20127;-84
2023/05/18 06:26:27;;;;;;;11.98;2.70;;;;;;;;;;4946911;28;20130;-84
2023/05/18 06:29:15;;;;;;;13.77;3.33;;;;;;;;;;4942762;28;20066;-85
2023/05/18 06:32:04;;;;;;;11.57;2.58;;;;;;;;;;4954816;28;20051;-84
2023/05/18 06:34:44;;;;;;;14.20;2.80;;;;;;;;;;4959700;28;20069;-86
2023/05/18 06:38:00;;;;;;;12.18;3.13;;;;;;;;;;4966549;28;20059;-84
2023/05/18 06:40:46;;;;;;;;;;;;;;;;;;;;;
2023/05/18 06:43:27;;;;;;;15.25;3.10;;;;;;;;;;4971556;28;20047;-85
2023/05/18 06:46:20;;;;;;;13.88;2.50;;;;;;;;;;4974722;28;20050;-86
2023/05/18 06:48:51;;;;;;;9.20;2.80;;;;;;;;;;4953530;28;20343;-84
2023/05/18 06:51:20;;;;;;;11.30;2.35;;;;;;;;;;4963852;28;20424;-85
2023/05/18 06:53:49;;;;;;;19.38;2.53;;;;;;;;;;4947535;28;20055;-85
2023/05/18 06:56:17;;;;;;;10.10;2.92;;;;;;;;;;4928129;28;20047;-86
2023/05/18 06:58:45;;;;;;;14.35;3.22;;;;;;;;;;4955225;28;20043;-85
2023/05/18 07:01:22;;;;;;;11.48;2.50;;;;;;;;;;4958016;28;20110;-84
2023/05/18 07:03:54;;;;;;;12.38;2.63;;;;;;;;;;4967880;28;20122;-84
2023/05/18 07:06:21;;;;;;;9.80;2.42;;;;;;;;;;4970452;28;20071;-87
2023/05/18 07:08:47;;;;;;;15.13;2.50;;;;;;;;;;4961396;28;20058;-84
2023/05/18 07:11:14;;;;;;;14.38;2.20;;;;;;;;;;4948688;28;20082;-85
2023/05/18 07:13:41;;;;;;;9.55;2.35;;;;;;;;;;4964351;28;20200;-85
2023/05/18 07:16:08;;;;;;;10.40;2.40;;;;;;;;;;4976550;28;20118;-84
2023/05/18 07:18:34;;;;;;;12.32;2.55;;;;;;;;;;4960717;28;20507;-85
2023/05/18 07:21:07;;;;;;;8.68;2.25;;;;;;;;;;4953500;28;20047;-85
2023/05/18 07:23:36;;;;;;;11.43;2.20;;;;;;;;;;4956221;28;20043;-86
2023/05/18 07:26:24;;;;;;;11.13;2.42;;;;;;;;;;4960932;28;20375;-85
2023/05/18 07:29:04;;;;;;;10.30;2.20;;;;;;;;;;4951811;28;20069;-84
2023/05/18 07:31:37;;;;;;;13.35;2.00;;;;;;;;;;4960924;28;20047;-88
2023/05/18 07:34:09;;;;;;;14.85;2.40;;;;;;;;;;4923291;29;20073;-87
2023/05/18 07:36:36;;;;;;;10.80;2.28;;;;;;;;;;4935686;28;20047;-82
2023/05/18 07:39:04;;;;;;;17.40;2.30;;;;;;;;;;4959606;28;20054;-86
2023/05/18 07:41:30;;;;;;;15.07;1.88;;;;;;;;;;4929198;28;20051;-85
2023/05/18 07:43:57;;;;;;;10.82;1.73;;;;;;;;;;4939074;28;20059;-87
2023/05/18 07:46:24;;;;;;;9.52;2.70;;;;;;;;;;4954174;28;20055;-86
2023/05/18 07:48:51;;;;;;;11.00;2.20;;;;;;;;;;4971878;28;20066;-86
2023/05/18 07:51:18;;;;;;;9.93;1.90;;;;;;;;;;4962182;28;20069;-88
2023/05/18 07:53:45;;;;;;;15.90;1.83;;;;;;;;;;4957471;28;20528;-86
2023/05/18 07:56:13;;;;;;;14.63;2.00;;;;;;;;;;4958999;28;20051;-86
2023/05/18 07:58:40;;;;;;;8.32;1.65;;;;;;;;;;4946208;28;20334;-86
2023/05/18 08:01:07;;;;;;;13.45;2.35;;;;;;;;;;4955377;28;20082;-78
2023/05/18 08:03:34;;;;;;;8.38;1.50;;;;;;;;;;4962945;28;20038;-85
2023/05/18 08:06:01;;;;;;;21.20;2.53;;;;;;;;;;4981522;28;20133;-85
2023/05/18 08:08:28;;;;;;;9.50;2.03;;;;;;;;;;4961118;28;20051;-85
2023/05/18 08:10:55;;;;;;;11.20;1.75;;;;;;;;;;4960145;28;20070;-85
2023/05/18 08:13:22;;;;;;;12.40;1.63;;;;;;;;;;4982960;28;20051;-88
2023/05/18 08:15:49;;;;;;;9.13;1.65;;;;;;;;;;4978496;28;20031;-85
2023/05/18 08:18:35;;;;;;;12.77;2.03;;;;;;;;;;4967246;28;20047;-87
2023/05/18 08:21:03;;;;;;;11.10;2.08;;;;;;;;;;4980489;28;20455;-86
2023/05/18 08:23:30;;;;;;;9.30;1.83;;;;;;;;;;4952204;28;20083;-85
2023/05/18 08:25:58;;;;;;;12.75;2.20;;;;;;;;;;4943411;28;20063;-73
2023/05/18 08:28:33;;;;;;;11.23;1.80;;;;;;;;;;4942719;28;20130;-86
2023/05/18 08:31:14;;;;;;;10.50;1.90;;;;;;;;;;4952718;28;20042;-88
2023/05/18 08:33:41;;;;;;;12.35;1.95;;;;;;;;;;4954795;28;20523;-85
2023/05/18 08:36:08;;;;;;;15.18;1.83;;;;;;;;;;4949875;28;20086;-85
2023/05/18 08:38:34;;;;;;;8.18;1.70;;;;;;;;;;4943680;28;20105;-79
2023/05/18 08:41:07;;;;;;;11.02;2.55;;;;;;;;;;4967568;28;20538;-82
2023/05/18 08:43:36;;;;;;;9.95;1.60;;;;;;;;;;4949646;28;20150;-81
2023/05/18 08:46:06;;;;;;;9.50;2.05;;;;;;;;;;4946882;28;20111;-83
2023/05/18 08:48:35;;;;;;;9.60;1.90;;;;;;;;;;4957526;28;20113;-81
2023/05/18 08:51:03;;;;;;;11.70;1.95;;;;;;;;;;4950245;28;20090;-83
2023/05/18 08:53:31;;;;;;;7.82;1.70;;;;;;;;;;4934100;28;20049;-80
2023/05/18 08:55:58;;;;;;;11.93;1.83;;;;;;;;;;4950201;28;20083;-80
2023/05/18 08:58:31;;;;;;;10.20;2.20;;;;;;;;;;4963954;28;20123;-80
2023/05/18 09:00:58;;;;;;;8.50;1.88;;;;;;;;;;4947576;28;20106;-79
2023/05/18 09:03:25;;;;;;;9.77;2.10;;;;;;;;;;4948796;28;20311;-81
2023/05/18 09:05:52;;;;;;;10.15;2.03;;;;;;;;;;4952134;28;20050;-80
2023/05/18 09:08:19;;;;;;;10.00;2.13;;;;;;;;;;4965171;28;20066;-78
2023/05/18 09:10:47;;;;;;;8.88;2.05;;;;;;;;;;4965990;28;20484;-79
2023/05/18 09:13:18;;;;;;;8.65;2.40;;;;;;;;;;4934010;28;20047;-79
2023/05/18 09:15:45;;;;;;;10.13;2.03;;;;;;;;;;4965602;28;20097;-80
2023/05/18 09:18:12;;;;;;;8.82;1.88;;;;;;;;;;4949341;28;20477;-81
2023/05/18 09:20:38;;;;;;;7.47;1.92;;;;;;;;;;4965533;28;20047;-80
2023/05/18 09:23:05;;;;;;;8.13;2.13;;;;;;;;;;4962906;28;20658;-81
2023/05/18 09:25:35;;;;;;;10.80;2.03;;;;;;;;;;4949622;28;20051;-80
2023/05/18 09:28:03;;;;;;;10.35;2.08;;;;;;;;;;4949626;28;20056;-80
2023/05/18 09:30:29;;;;;;;17.58;2.42;;;;;;;;;;4977543;28;20093;-80
2023/05/18 09:32:56;;;;;;;14.23;2.10;;;;;;;;;;4965997;28;20058;-78
2023/05/18 09:35:23;;;;;;;10.32;2.05;;;;;;;;;;4965438;28;20573;-78
2023/05/18 09:37:51;;;;;;;13.52;2.30;;;;;;;;;;4964512;28;20051;-81
2023/05/18 09:40:26;;;;;;;7.43;1.52;;;;;;;;;;4959525;28;20082;-80
2023/05/18 09:42:54;;;;;;;8.18;1.77;;;;;;;;;;4937322;28;20126;-81
2023/05/18 09:45:27;;;;;;;13.25;1.52;;;;;;;;;;4939711;28;20127;-80
2023/05/18 09:47:54;;;;;;;11.00;1.77;;;;;;;;;;4951602;28;20081;-80
2023/05/18 09:50:21;;;;;;;11.35;1.92;;;;;;;;;;4965075;28;20055;-79
2023/05/18 09:52:48;;;;;;;9.20;1.95;;;;;;;;;;4939153;28;20055;-80
2023/05/18 09:55:16;;;;;;;12.40;1.70;;;;;;;;;;4948556;28;20142;-80
2023/05/18 09:57:43;;;;;;;6.60;1.75;;;;;;;;;;4947641;28;20057;-79
2023/05/18 10:00:11;;;;;;;8.93;1.70;;;;;;;;;;4948570;28;20051;-80
2023/05/18 10:02:44;;;;;;;7.63;1.70;;;;;;;;;;4964116;28;20398;-79
2023/05/18 10:05:19;;;;;;;10.70;2.03;;;;;;;;;;4955942;28;20047;-79
2023/05/18 10:07:47;;;;;;;;;;;;;;;;;;4949662;28;20476;-79
2023/05/18 10:10:16;;;;;;;9.85;1.75;;;;;;;;;;4932859;28;20387;-80
2023/05/18 10:12:42;;;;;;;8.35;1.52;;;;;;;;;;4947495;28;20047;-82
2023/05/18 10:15:09;;;;;;;8.68;1.75;;;;;;;;;;4965056;28;20079;-81
2023/05/18 10:17:37;;;;;;;7.45;1.85;;;;;;;;;;4958272;28;20535;-80
2023/05/18 10:20:07;;;;;;;9.38;1.80;;;;;;;;;;4947214;28;20055;-81
2023/05/18 10:22:34;;;;;;;13.32;1.83;;;;;;;;;;4950718;28;20051;-83
2023/05/18 10:25:02;;;;;;;11.93;2.33;;;;;;;;;;4948640;28;20055;-80
2023/05/18 10:27:33;;;;;;;9.48;1.77;;;;;;;;;;4950750;28;20058;-82
2023/05/18 10:30:02;;;;;;;10.95;1.60;;;;;;;;;;4946638;28;20575;-81
2023/05/18 10:32:29;;;;;;;8.70;1.90;;;;;;;;;;4927925;28;20051;-81
2023/05/18 10:34:57;;;;;;;12.27;1.73;;;;;;;;;;4945393;28;20503;-81
2023/05/18 10:37:25;;;;;;;9.32;1.80;;;;;;;;;;4951070;28;20062;-81
2023/05/18 10:39:53;;;;;;;11.65;2.05;;;;;;;;;;4971106;28;20130;-81
2023/05/18 10:42:21;;;;;;;8.85;1.83;;;;;;;;;;4964105;28;20051;-81
2023/05/18 10:44:49;;;;;;;8.07;1.77;;;;;;;;;;4972135;28;20522;-81
2023/05/18 10:47:16;;;;;;;6.25;1.80;;;;;;;;;;4985515;28;20420;-81
2023/05/18 10:49:45;;;;;;;9.50;1.75;;;;;;;;;;4965606;28;20074;-84
2023/05/18 10:52:12;;;;;;;11.73;1.92;;;;;;;;;;4987792;28;20062;-82
2023/05/18 10:54:39;;;;;;;10.15;1.83;;;;;;;;;;4965931;28;20563;-83
2023/05/18 10:57:09;;;;;;;5.68;1.80;;;;;;;;;;4966313;28;20047;-80
2023/05/18 10:59:38;;;;;;;9.27;1.83;;;;;;;;;;4956682;28;20054;-80
2023/05/18 11:02:09;;;;;;;12.18;2.03;;;;;;;;;;4979759;28;20070;-81
2023/05/18 11:04:38;;;;;;;7.63;1.95;;;;;;;;;;4979435;28;20058;-79
2023/05/18 11:07:04;;;;;;;7.20;1.75;;;;;;;;;;4983863;28;20634;-81
2023/05/18 11:09:32;;;;;;;9.45;1.83;;;;;;;;;;4969162;28;20071;-81
2023/05/18 11:11:59;;;;;;;7.82;1.83;;;;;;;;;;4972785;28;20082;-80
2023/05/18 11:14:29;;;;;;;10.02;1.80;;;;;;;;;;4967609;28;20065;-79
2023/05/18 11:17:18;;;;;;;14.05;1.88;;;;;;;;;;4987894;28;20101;-80
2023/05/18 11:20:06;;;;;;;5.95;1.90;;;;;;;;;;4976869;28;20186;-81
2023/05/18 11:22:50;;;;;;;11.48;1.95;;;;;;;;;;4967170;28;20053;-81
2023/05/18 11:25:23;;;;;;;9.13;1.48;;;;;;;;;;4983653;28;20073;-81
2023/05/18 11:27:50;;;;;;;4.57;1.42;;;;;;;;;;4963137;28;20124;-79
2023/05/18 11:30:27;;;;;;;9.38;2.05;;;;;;;;;;4983604;28;20094;-81
2023/05/18 11:33:13;;;;;;;5.63;1.33;;;;;;;;;;4961494;28;20050;-80
2023/05/18 11:35:59;;;;;;;9.73;1.80;;;;;;;;;;4970016;28;20047;-79
2023/05/18 11:38:44;;;;;;;10.43;1.60;;;;;;;;;;4965469;28;20070;-81
2023/05/18 11:41:27;;;;;;;6.35;1.50;;;;;;;;;;4985420;28;20046;-79
2023/05/18 11:43:57;;;;;;;10.77;1.95;;;;;;;;;;4964032;28;20057;-80
2023/05/18 11:46:25;;;;;;;6.35;1.60;;;;;;;;;;4981692;28;20320;-80
2023/05/18 11:48:51;;;;;;;9.23;1.75;;;;;;;;;;4964595;28;20046;-80
2023/05/18 11:51:18;;;;;;;7.45;1.40;;;;;;;;;;4987265;28;20051;-79
2023/05/18 11:53:45;;;;;;;8.40;1.77;;;;;;;;;;4949957;28;20126;-78
2023/05/18 11:56:12;;;;;;;6.32;1.90;;;;;;;;;;4965103;28;20054;-80
2023/05/18 11:58:38;;;;;;;7.25;1.55;;;;;;;;;;4938624;28;20195;-81
2023/05/18 12:01:10;;;;;;;7.38;1.45;;;;;;;;;;4950093;28;20521;-80
2023/05/18 12:03:38;;;;;;;8.30;1.80;;;;;;;;;;4964148;28;20065;-83
2023/05/18 12:06:05;;;;;;;10.00;1.85;;;;;;;;;;4969468;28;20251;-81
2023/05/18 12:08:32;;;;;;;9.23;1.73;;;;;;;;;;4968675;28;20070;-80
2023/05/18 12:11:01;;;;;;;6.18;1.60;;;;;;;;;;4968796;28;20059;-81
2023/05/18 12:13:27;;;;;;;4.95;1.42;;;;;;;;;;4955698;28;20210;-80
2023/05/18 12:15:55;;;;;;;8.65;2.00;;;;;;;;;;4965399;28;20137;-78
2023/05/18 12:18:26;;;;;;;13.02;2.30;;;;;;;;;;4956302;28;20054;-80
2023/05/18 12:20:53;;;;;;;9.68;1.60;;;;;;;;;;4968552;28;20069;-77
2023/05/18 12:23:20;;;;;;;8.45;1.83;;;;;;;;;;4966707;28;20047;-80
2023/05/18 12:25:49;;;;;;;9.05;1.42;;;;;;;;;;4982781;28;20541;-80
2023/05/18 12:28:16;;;;;;;6.35;1.42;;;;;;;;;;4970210;28;20494;-81
2023/05/18 12:30:43;;;;;;;7.80;1.30;;;;;;;;;;4961817;28;20047;-82
2023/05/18 12:33:11;;;;;;;12.32;1.73;;;;;;;;;;4937612;28;20045;-82
2023/05/18 12:35:39;;;;;;;4.53;1.25;;;;;;;;;;4954305;28;20043;-81
2023/05/18 12:38:06;;;;;;;6.28;1.88;;;;;;;;;;4955182;28;20139;-80
2023/05/18 12:40:37;;;;;;;7.32;1.60;;;;;;;;;;4959378;28;20050;-81
2023/05/18 12:43:06;;;;;;;10.38;1.70;;;;;;;;;;4955305;28;20048;-80
2023/05/18 12:45:33;;;;;;;10.35;1.65;;;;;;;;;;4951379;28;20065;-78
2023/05/18 12:48:07;;;;;;;12.05;2.22;;;;;;;;;;4949737;28;20058;-76
2023/05/18 12:50:35;;;;;;;6.22;1.45;;;;;;;;;;4968957;28;20043;-81
2023/05/18 12:53:02;;;;;;;11.23;2.08;;;;;;;;;;4955154;28;20103;-80
2023/05/18 12:55:29;;;;;;;7.78;1.67;;;;;;;;;;4953943;28;20101;-82
2023/05/18 12:57:58;;;;;;;7.57;1.65;;;;;;;;;;4953046;28;20051;-82
2023/05/18 13:00:24;;;;;;;5.78;1.38;;;;;;;;;;4954617;28;20270;-82
2023/05/18 13:02:51;;;;;;;5.00;1.60;;;;;;;;;;4973612;28;20049;-82
2023/05/18 13:05:22;;;;;;;6.43;1.38;;;;;;;;;;4977361;28;20145;-83
2023/05/18 13:07:49;;;;;;;7.20;1.60;;;;;;;;;;4974840;28;20611;-84
2023/05/18 13:10:17;;;;;;;7.88;1.40;;;;;;;;;;4957263;28;20098;-84
2023/05/18 13:12:51;;;;;;;5.55;1.63;;;;;;;;;;4948821;28;20061;-82
2023/05/18 13:15:18;;;;;;;7.63;1.55;;;;;;;;;;4967246;28;20119;-81
2023/05/18 13:17:58;;;;;;;7.78;1.98;;;;;;;;;;4955777;28;20335;-82
2023/05/18 13:20:39;;;;;;;9.88;1.60;;;;;;;;;;4988610;28;20051;-83
2023/05/18 13:23:08;;;;;;;6.93;1.40;;;;;;;;;;4988834;28;20051;-83
2023/05/18 13:25:34;;;;;;;10.18;1.83;;;;;;;;;;4971068;28;20035;-83
2023/05/18 13:28:02;;;;;;;10.90;1.67;;;;;;;;;;4973736;28;20141;-84
2023/05/18 13:30:28;;;;;;;9.30;1.70;;;;;;;;;;4941770;28;20040;-82
2023/05/18 13:32:56;;;;;;;8.27;1.50;;;;;;;;;;4969078;28;20217;-83
2023/05/18 13:35:25;;;;;;;4.22;1.40;;;;;;;;;;4953788;28;20456;-83
2023/05/18 13:37:52;;;;;;;6.72;1.55;;;;;;;;;;4954259;28;20073;-83
2023/05/18 13:40:19;;;;;;;15.48;2.00;;;;;;;;;;4953334;28;20210;-83
2023/05/18 13:42:46;;;;;;;9.77;1.73;;;;;;;;;;4954218;28;20050;-83
2023/05/18 13:45:13;;;;;;;5.10;1.60;;;;;;;;;;4954165;28;20404;-82
2023/05/18 13:47:52;;;;;;;8.52;1.85;;;;;;;;;;4967944;28;20094;-82
2023/05/18 13:50:34;;;;;;;13.10;1.60;;;;;;;;;;4960888;28;20066;-82
2023/05/18 13:53:10;;;;;;;5.45;1.30;;;;;;;;;;4954835;28;20047;-83
2023/05/18 13:55:36;;;;;;;7.68;1.58;;;;;;;;;;4953535;28;20483;-81
2023/05/18 13:58:03;;;;;;;7.10;1.27;;;;;;;;;;4952816;28;20063;-83
2023/05/18 14:00:31;;;;;;;5.10;1.25;;;;;;;;;;4968358;28;20063;-83
2023/05/18 14:02:59;;;;;;;12.57;1.80;;;;;;;;;;4958831;28;20047;-82
2023/05/18 14:05:26;;;;;;;7.38;1.70;;;;;;;;;;4954282;28;20046;-82
2023/05/18 14:07:53;;;;;;;5.60;1.40;;;;;;;;;;4952582;28;20511;-84
2023/05/18 14:10:19;;;;;;;8.02;1.50;;;;;;;;;;4952884;28;20436;-84
2023/05/18 14:12:46;;;;;;;20.15;1.60;;;;;;;;;;4967342;28;21016;-81
2023/05/18 14:15:13;;;;;;;11.98;1.50;;;;;;;;;;4971516;28;20051;-83
2023/05/18 14:17:42;;;;;;;12.45;1.63;;;;;;;;;;4954031;28;20066;-81
2023/05/18 14:20:10;;;;;;;9.35;1.35;;;;;;;;;;4955561;28;20104;-83
2023/05/18 14:22:37;;;;;;;11.20;1.50;;;;;;;;;;4955207;28;20055;-85
2023/05/18 14:25:04;;;;;;;7.18;1.77;;;;;;;;;;4955337;28;20073;-83
2023/05/18 14:27:30;;;;;;;3.70;1.30;;;;;;;;;;4939250;28;20126;-84
2023/05/18 14:29:57;;;;;;;5.95;1.60;;;;;;;;;;4957955;28;20058;-84
2023/05/18 14:32:24;;;;;;;7.55;1.50;;;;;;;;;;4956835;28;20102;-83
2023/05/18 14:34:54;;;;;;;5.45;1.45;;;;;;;;;;4971974;28;20115;-85
2023/05/18 14:37:20;;;;;;;8.73;1.90;;;;;;;;;;4959047;28;20116;-84
2023/05/18 14:39:47;;;;;;;4.15;1.23;;;;;;;;;;4961996;28;20047;-83
2023/05/18 14:42:14;;;;;;;6.65;1.65;;;;;;;;;;4955637;28;20039;-83
2023/05/18 14:44:41;;;;;;;5.47;1.50;;;;;;;;;;4940906;28;20201;-83
2023/05/18 14:47:08;;;;;;;6.78;1.55;;;;;;;;;;4948986;28;20452;-82
2023/05/18 14:49:37;;;;;;;9.63;1.67;;;;;;;;;;4955579;28;20532;-83
2023/05/18 14:52:03;;;;;;;11.23;1.80;;;;;;;;;;4940138;28;20043;-83
2023/05/18 14:54:30;;;;;;;12.70;1.80;;;;;;;;;;4955565;28;20063;-81
2023/05/18 14:56:58;;;;;;;11.68;1.70;;;;;;;;;;4956479;28;20047;-82